sensor_id;sensor_type;location;lat;lon;timestamp;P1;durP1;ratioP1;P2;durP2;ratioP2
6614;SDS011;3343;42.896;23.912;2022-08-25T01:12:37;6.88;;;5.45;;
6614;SDS011;3343;42.896;23.912;2022-08-25T01:15:06;8.40;;;6.43;;
6614;SDS011;3343;42.896;23.912;2022-08-25T01:17:38;11.35;;;5.75;;
6614;SDS011;3343;42.896;23.912;2022-08-25T01:20:12;8.40;;;5.93;;
6614;SDS011;3343;42.896;23.912;2022-08-25T01:22:41;8.38;;;5.95;;
6614;SDS011;3343;42.896;23.912;2022-08-25T01:25:13;9.25;;;5.65;;
6614;SDS011;3343;42.896;23.912;2022-08-25T01:27:58;8.05;;;5.95;;
6614;SDS011;3343;42.896;23.912;2022-08-25T01:30:26;7.07;;;5.28;;
6614;SDS011;3343;42.896;23.912;2022-08-25T01:32:53;6.90;;;5.28;;
6614;SDS011;3343;42.896;23.912;2022-08-25T01:35:20;6.53;;;5.00;;
6614;SDS011;3343;42.896;23.912;2022-08-25T01:37:49;10.88;;;5.57;;
6614;SDS011;3343;42.896;23.912;2022-08-25T01:40:16;7.60;;;5.05;;
6614;SDS011;3343;42.896;23.912;2022-08-25T01:42:46;9.05;;;5.28;;
6614;SDS011;3343;42.896;23.912;2022-08-25T01:45:23;9.48;;;5.35;;
6614;SDS011;3343;42.896;23.912;2022-08-25T01:47:50;8.30;;;6.13;;
6614;SDS011;3343;42.896;23.912;2022-08-25T01:50:17;7.90;;;5.60;;
6614;SDS011;3343;42.896;23.912;2022-08-25T01:52:45;12.45;;;5.65;;
6614;SDS011;3343;42.896;23.912;2022-08-25T01:55:17;8.88;;;4.97;;
6614;SDS011;3343;42.896;23.912;2022-08-25T01:57:44;9.20;;;5.65;;
6614;SDS011;3343;42.896;23.912;2022-08-25T02:00:12;8.55;;;4.85;;
6614;SDS011;3343;42.896;23.912;2022-08-25T02:02:40;12.05;;;5.72;;
6614;SDS011;3343;42.896;23.912;2022-08-25T02:05:08;10.52;;;5.10;;
6614;SDS011;3343;42.896;23.912;2022-08-25T02:07:35;9.05;;;5.75;;
6614;SDS011;3343;42.896;23.912;2022-08-25T02:10:03;10.27;;;5.35;;
6614;SDS011;3343;42.896;23.912;2022-08-25T02:12:33;9.95;;;4.97;;
6614;SDS011;3343;42.896;23.912;2022-08-25T02:15:01;7.80;;;4.97;;
6614;SDS011;3343;42.896;23.912;2022-08-25T02:17:30;8.10;;;5.55;;
6614;SDS011;3343;42.896;23.912;2022-08-25T02:19:57;11.82;;;5.75;;
6614;SDS011;3343;42.896;23.912;2022-08-25T02:22:24;6.95;;;5.28;;
6614;SDS011;3343;42.896;23.912;2022-08-25T02:24:51;17.73;;;5.95;;
6614;SDS011;3343;42.896;23.912;2022-08-25T02:27:18;7.65;;;5.32;;
6614;SDS011;3343;42.896;23.912;2022-08-25T02:29:46;7.15;;;5.45;;
6614;SDS011;3343;42.896;23.912;2022-08-25T02:32:13;7.53;;;5.53;;
6614;SDS011;3343;42.896;23.912;2022-08-25T02:34:40;8.38;;;5.18;;
6614;SDS011;3343;42.896;23.912;2022-08-25T02:37:06;9.30;;;5.47;;
6614;SDS011;3343;42.896;23.912;2022-08-25T02:39:34;8.13;;;5.50;;
6614;SDS011;3343;42.896;23.912;2022-08-25T02:42:01;6.38;;;4.68;;
6614;SDS011;3343;42.896;23.912;2022-08-25T02:44:29;8.57;;;5.65;;
6614;SDS011;3343;42.896;23.912;2022-08-25T02:46:59;7.70;;;4.95;;
6614;SDS011;3343;42.896;23.912;2022-08-25T02:49:26;8.90;;;5.10;;
6614;SDS011;3343;42.896;23.912;2022-08-25T02:51:52;9.20;;;4.88;;
6614;SDS011;3343;42.896;23.912;2022-08-25T02:54:19;6.47;;;4.78;;
6614;SDS011;3343;42.896;23.912;2022-08-25T02:56:47;5.75;;;4.63;;
6614;SDS011;3343;42.896;23.912;2022-08-25T02:59:14;8.45;;;5.32;;
6614;SDS011;3343;42.896;23.912;2022-08-25T03:01:42;6.70;;;5.00;;
6614;SDS011;3343;42.896;23.912;2022-08-25T03:04:10;8.10;;;5.05;;
6614;SDS011;3343;42.896;23.912;2022-08-25T03:06:37;7.40;;;5.45;;
6614;SDS011;3343;42.896;23.912;2022-08-25T03:09:05;8.18;;;5.03;;
6614;SDS011;3343;42.896;23.912;2022-08-25T03:11:32;4.93;;;4.43;;
6614;SDS011;3343;42.896;23.912;2022-08-25T03:14:00;8.10;;;5.03;;
6614;SDS011;3343;42.896;23.912;2022-08-25T03:16:27;6.13;;;4.85;;
6614;SDS011;3343;42.896;23.912;2022-08-25T03:18:54;7.95;;;5.10;;
6614;SDS011;3343;42.896;23.912;2022-08-25T03:21:23;8.93;;;4.32;;
6614;SDS011;3343;42.896;23.912;2022-08-25T03:23:50;8.40;;;4.43;;
6614;SDS011;3343;42.896;23.912;2022-08-25T03:26:17;5.75;;;4.70;;
6614;SDS011;3343;42.896;23.912;2022-08-25T03:29:01;5.10;;;3.95;;
6614;SDS011;3343;42.896;23.912;2022-08-25T03:31:30;6.72;;;4.45;;
6614;SDS011;3343;42.896;23.912;2022-08-25T03:33:58;5.22;;;4.10;;
6614;SDS011;3343;42.896;23.912;2022-08-25T03:36:26;4.82;;;4.18;;
6614;SDS011;3343;42.896;23.912;2022-08-25T03:38:54;7.95;;;5.15;;
6614;SDS011;3343;42.896;23.912;2022-08-25T03:41:22;5.88;;;4.63;;
6614;SDS011;3343;42.896;23.912;2022-08-25T03:43:52;5.45;;;4.45;;
6614;SDS011;3343;42.896;23.912;2022-08-25T03:46:21;7.22;;;4.63;;
6614;SDS011;3343;42.896;23.912;2022-08-25T03:48:50;6.95;;;4.53;;
6614;SDS011;3343;42.896;23.912;2022-08-25T03:51:18;8.15;;;4.50;;
6614;SDS011;3343;42.896;23.912;2022-08-25T03:53:48;5.93;;;4.63;;
6614;SDS011;3343;42.896;23.912;2022-08-25T03:56:15;7.97;;;4.45;;
6614;SDS011;3343;42.896;23.912;2022-08-25T03:58:43;9.15;;;3.72;;
6614;SDS011;3343;42.896;23.912;2022-08-25T04:01:10;5.88;;;4.47;;
6614;SDS011;3343;42.896;23.912;2022-08-25T04:03:37;6.85;;;4.53;;
6614;SDS011;3343;42.896;23.912;2022-08-25T04:06:04;5.93;;;4.50;;
6614;SDS011;3343;42.896;23.912;2022-08-25T04:08:33;6.70;;;4.88;;
6614;SDS011;3343;42.896;23.912;2022-08-25T04:11:05;7.80;;;5.10;;
6614;SDS011;3343;42.896;23.912;2022-08-25T04:13:33;6.53;;;4.95;;
6614;SDS011;3343;42.896;23.912;2022-08-25T04:16:01;5.97;;;4.50;;
6614;SDS011;3343;42.896;23.912;2022-08-25T04:18:29;8.38;;;4.53;;
6614;SDS011;3343;42.896;23.912;2022-08-25T04:21:05;10.15;;;5.00;;
6614;SDS011;3343;42.896;23.912;2022-08-25T04:23:34;6.95;;;4.50;;
6614;SDS011;3343;42.896;23.912;2022-08-25T04:26:07;8.48;;;4.90;;
6614;SDS011;3343;42.896;23.912;2022-08-25T04:28:35;6.45;;;4.75;;
6614;SDS011;3343;42.896;23.912;2022-08-25T04:31:04;10.52;;;5.07;;
6614;SDS011;3343;42.896;23.912;2022-08-25T04:33:32;7.05;;;4.90;;
6614;SDS011;3343;42.896;23.912;2022-08-25T04:35:59;7.80;;;5.20;;
6614;SDS011;3343;42.896;23.912;2022-08-25T04:38:26;6.15;;;4.93;;
6614;SDS011;3343;42.896;23.912;2022-08-25T04:40:55;7.03;;;4.45;;
6614;SDS011;3343;42.896;23.912;2022-08-25T04:43:24;6.88;;;5.32;;
6614;SDS011;3343;42.896;23.912;2022-08-25T04:45:51;7.78;;;5.07;;
6614;SDS011;3343;42.896;23.912;2022-08-25T04:48:19;9.50;;;5.60;;
6614;SDS011;3343;42.896;23.912;2022-08-25T04:50:46;12.85;;;5.25;;
6614;SDS011;3343;42.896;23.912;2022-08-25T04:53:13;7.82;;;4.97;;
6614;SDS011;3343;42.896;23.912;2022-08-25T04:55:40;6.10;;;4.68;;
6614;SDS011;3343;42.896;23.912;2022-08-25T04:58:08;7.20;;;5.93;;
6614;SDS011;3343;42.896;23.912;2022-08-25T05:00:37;6.80;;;5.10;;
6614;SDS011;3343;42.896;23.912;2022-08-25T05:03:05;6.03;;;4.57;;
6614;SDS011;3343;42.896;23.912;2022-08-25T05:05:34;4.95;;;4.30;;
6614;SDS011;3343;42.896;23.912;2022-08-25T05:08:02;6.78;;;4.72;;
6614;SDS011;3343;42.896;23.912;2022-08-25T05:10:30;6.68;;;4.75;;
6614;SDS011;3343;42.896;23.912;2022-08-25T05:12:58;8.65;;;4.97;;
6614;SDS011;3343;42.896;23.912;2022-08-25T05:15:25;7.70;;;4.30;;
6614;SDS011;3343;42.896;23.912;2022-08-25T05:18:11;5.53;;;4.20;;
6614;SDS011;3343;42.896;23.912;2022-08-25T05:20:38;9.02;;;4.00;;
6614;SDS011;3343;42.896;23.912;2022-08-25T05:23:05;6.90;;;4.30;;
6614;SDS011;3343;42.896;23.912;2022-08-25T05:25:31;5.60;;;3.95;;
6614;SDS011;3343;42.896;23.912;2022-08-25T05:28:00;4.30;;;3.70;;
6614;SDS011;3343;42.896;23.912;2022-08-25T05:30:27;6.75;;;3.70;;
6614;SDS011;3343;42.896;23.912;2022-08-25T05:32:54;7.13;;;4.38;;
6614;SDS011;3343;42.896;23.912;2022-08-25T05:35:22;4.85;;;3.67;;
6614;SDS011;3343;42.896;23.912;2022-08-25T05:37:49;5.40;;;4.20;;
6614;SDS011;3343;42.896;23.912;2022-08-25T05:40:16;8.38;;;4.13;;
6614;SDS011;3343;42.896;23.912;2022-08-25T05:42:43;8.20;;;4.18;;
6614;SDS011;3343;42.896;23.912;2022-08-25T05:45:10;6.18;;;4.38;;
6614;SDS011;3343;42.896;23.912;2022-08-25T05:47:38;10.38;;;3.78;;
6614;SDS011;3343;42.896;23.912;2022-08-25T05:50:05;5.88;;;4.22;;
6614;SDS011;3343;42.896;23.912;2022-08-25T05:52:35;6.53;;;4.05;;
6614;SDS011;3343;42.896;23.912;2022-08-25T05:55:02;9.90;;;4.05;;
6614;SDS011;3343;42.896;23.912;2022-08-25T05:57:30;8.23;;;3.97;;
6614;SDS011;3343;42.896;23.912;2022-08-25T05:59:57;7.00;;;3.83;;
6614;SDS011;3343;42.896;23.912;2022-08-25T06:02:24;6.90;;;3.17;;
6614;SDS011;3343;42.896;23.912;2022-08-25T06:05:06;4.90;;;3.20;;
6614;SDS011;3343;42.896;23.912;2022-08-25T06:07:35;6.80;;;3.80;;
6614;SDS011;3343;42.896;23.912;2022-08-25T06:10:02;5.82;;;3.17;;
6614;SDS011;3343;42.896;23.912;2022-08-25T06:12:29;5.22;;;3.70;;
6614;SDS011;3343;42.896;23.912;2022-08-25T06:15:00;7.32;;;3.25;;
6614;SDS011;3343;42.896;23.912;2022-08-25T06:17:27;6.40;;;3.40;;
6614;SDS011;3343;42.896;23.912;2022-08-25T06:19:54;4.00;;;3.17;;
6614;SDS011;3343;42.896;23.912;2022-08-25T06:22:21;5.32;;;2.80;;
6614;SDS011;3343;42.896;23.912;2022-08-25T06:24:50;4.72;;;3.17;;
6614;SDS011;3343;42.896;23.912;2022-08-25T06:27:17;4.43;;;2.92;;
6614;SDS011;3343;42.896;23.912;2022-08-25T06:29:45;4.10;;;3.20;;
6614;SDS011;3343;42.896;23.912;2022-08-25T06:32:12;5.05;;;3.15;;
6614;SDS011;3343;42.896;23.912;2022-08-25T06:34:39;3.88;;;3.05;;
6614;SDS011;3343;42.896;23.912;2022-08-25T06:37:06;3.78;;;3.03;;
6614;SDS011;3343;42.896;23.912;2022-08-25T06:39:33;4.45;;;2.92;;
6614;SDS011;3343;42.896;23.912;2022-08-25T06:42:01;5.05;;;3.17;;
6614;SDS011;3343;42.896;23.912;2022-08-25T06:44:28;6.75;;;3.10;;
6614;SDS011;3343;42.896;23.912;2022-08-25T06:46:55;3.10;;;2.80;;
6614;SDS011;3343;42.896;23.912;2022-08-25T06:49:22;6.85;;;3.22;;
6614;SDS011;3343;42.896;23.912;2022-08-25T06:51:52;4.20;;;3.20;;
6614;SDS011;3343;42.896;23.912;2022-08-25T06:54:19;4.72;;;3.10;;
6614;SDS011;3343;42.896;23.912;2022-08-25T06:56:46;4.82;;;3.10;;
6614;SDS011;3343;42.896;23.912;2022-08-25T06:59:14;5.57;;;2.80;;
6614;SDS011;3343;42.896;23.912;2022-08-25T07:01:41;4.85;;;2.97;;
6614;SDS011;3343;42.896;23.912;2022-08-25T07:04:09;6.07;;;3.63;;
6614;SDS011;3343;42.896;23.912;2022-08-25T07:06:36;6.50;;;3.20;;
6614;SDS011;3343;42.896;23.912;2022-08-25T07:09:04;4.93;;;3.22;;
6614;SDS011;3343;42.896;23.912;2022-08-25T07:11:33;4.63;;;3.45;;
6614;SDS011;3343;42.896;23.912;2022-08-25T07:14:00;5.93;;;3.78;;
6614;SDS011;3343;42.896;23.912;2022-08-25T07:16:29;6.38;;;3.45;;
6614;SDS011;3343;42.896;23.912;2022-08-25T07:18:57;5.82;;;3.00;;
6614;SDS011;3343;42.896;23.912;2022-08-25T07:21:25;5.75;;;3.10;;
6614;SDS011;3343;42.896;23.912;2022-08-25T07:23:54;5.22;;;3.50;;
6614;SDS011;3343;42.896;23.912;2022-08-25T07:26:25;5.10;;;2.75;;
6614;SDS011;3343;42.896;23.912;2022-08-25T07:28:54;6.38;;;3.55;;
6614;SDS011;3343;42.896;23.912;2022-08-25T07:31:22;7.75;;;3.67;;
6614;SDS011;3343;42.896;23.912;2022-08-25T07:33:51;4.95;;;2.97;;
6614;SDS011;3343;42.896;23.912;2022-08-25T07:36:35;4.18;;;2.75;;
6614;SDS011;3343;42.896;23.912;2022-08-25T07:39:02;9.18;;;3.30;;
6614;SDS011;3343;42.896;23.912;2022-08-25T07:41:30;8.85;;;3.25;;
6614;SDS011;3343;42.896;23.912;2022-08-25T07:43:59;4.38;;;3.33;;
6614;SDS011;3343;42.896;23.912;2022-08-25T07:46:25;5.22;;;3.08;;
6614;SDS011;3343;42.896;23.912;2022-08-25T07:48:54;6.45;;;2.63;;
6614;SDS011;3343;42.896;23.912;2022-08-25T07:51:21;3.95;;;3.05;;
6614;SDS011;3343;42.896;23.912;2022-08-25T07:53:48;8.07;;;3.10;;
6614;SDS011;3343;42.896;23.912;2022-08-25T07:56:15;5.45;;;3.10;;
6614;SDS011;3343;42.896;23.912;2022-08-25T07:58:43;3.55;;;2.72;;
6614;SDS011;3343;42.896;23.912;2022-08-25T08:01:12;5.82;;;2.90;;
6614;SDS011;3343;42.896;23.912;2022-08-25T08:03:40;7.70;;;3.03;;
6614;SDS011;3343;42.896;23.912;2022-08-25T08:06:08;7.18;;;3.50;;
6614;SDS011;3343;42.896;23.912;2022-08-25T08:08:37;3.65;;;2.97;;
6614;SDS011;3343;42.896;23.912;2022-08-25T08:11:04;5.07;;;3.20;;
6614;SDS011;3343;42.896;23.912;2022-08-25T08:13:31;7.65;;;3.33;;
6614;SDS011;3343;42.896;23.912;2022-08-25T08:15:59;6.30;;;3.15;;
6614;SDS011;3343;42.896;23.912;2022-08-25T08:18:25;4.00;;;2.53;;
6614;SDS011;3343;42.896;23.912;2022-08-25T08:20:52;4.97;;;3.47;;
6614;SDS011;3343;42.896;23.912;2022-08-25T08:23:20;4.72;;;2.88;;
6614;SDS011;3343;42.896;23.912;2022-08-25T08:25:51;4.63;;;3.25;;
6614;SDS011;3343;42.896;23.912;2022-08-25T08:28:20;4.22;;;3.05;;
6614;SDS011;3343;42.896;23.912;2022-08-25T08:30:52;6.80;;;3.00;;
6614;SDS011;3343;42.896;23.912;2022-08-25T08:33:19;4.55;;;2.90;;
6614;SDS011;3343;42.896;23.912;2022-08-25T08:35:47;5.20;;;2.95;;
6614;SDS011;3343;42.896;23.912;2022-08-25T08:38:21;5.63;;;3.30;;
6614;SDS011;3343;42.896;23.912;2022-08-25T08:40:51;4.35;;;3.15;;
6614;SDS011;3343;42.896;23.912;2022-08-25T08:43:43;6.45;;;3.13;;
6614;SDS011;3343;42.896;23.912;2022-08-25T08:46:12;4.03;;;3.03;;
6614;SDS011;3343;42.896;23.912;2022-08-25T08:48:42;5.97;;;3.25;;
6614;SDS011;3343;42.896;23.912;2022-08-25T08:51:18;4.65;;;2.95;;
6614;SDS011;3343;42.896;23.912;2022-08-25T08:53:51;6.43;;;3.00;;
6614;SDS011;3343;42.896;23.912;2022-08-25T08:56:22;6.53;;;3.25;;
6614;SDS011;3343;42.896;23.912;2022-08-25T08:58:51;5.53;;;3.17;;
6614;SDS011;3343;42.896;23.912;2022-08-25T09:01:23;7.60;;;3.80;;
6614;SDS011;3343;42.896;23.912;2022-08-25T09:03:55;8.65;;;3.33;;
6614;SDS011;3343;42.896;23.912;2022-08-25T09:06:30;4.10;;;2.67;;
6614;SDS011;3343;42.896;23.912;2022-08-25T09:09:04;3.90;;;3.05;;
6614;SDS011;3343;42.896;23.912;2022-08-25T09:11:39;8.52;;;2.85;;
6614;SDS011;3343;42.896;23.912;2022-08-25T09:14:20;9.82;;;3.42;;
6614;SDS011;3343;42.896;23.912;2022-08-25T09:16:59;9.18;;;2.53;;
6614;SDS011;3343;42.896;23.912;2022-08-25T09:19:37;4.35;;;2.70;;
6614;SDS011;3343;42.896;23.912;2022-08-25T09:22:33;11.40;;;2.92;;
6614;SDS011;3343;42.896;23.912;2022-08-25T09:25:13;4.10;;;2.85;;
6614;SDS011;3343;42.896;23.912;2022-08-25T09:27:50;9.95;;;3.15;;
6614;SDS011;3343;42.896;23.912;2022-08-25T09:30:30;6.28;;;2.70;;
6614;SDS011;3343;42.896;23.912;2022-08-25T09:33:05;5.65;;;2.72;;
6614;SDS011;3343;42.896;23.912;2022-08-25T09:35:34;5.78;;;2.42;;
6614;SDS011;3343;42.896;23.912;2022-08-25T09:38:05;4.30;;;2.30;;
6614;SDS011;3343;42.896;23.912;2022-08-25T09:40:36;5.47;;;2.47;;
6614;SDS011;3343;42.896;23.912;2022-08-25T09:43:08;8.85;;;2.60;;
6614;SDS011;3343;42.896;23.912;2022-08-25T09:45:45;5.10;;;2.47;;
6614;SDS011;3343;42.896;23.912;2022-08-25T09:48:20;5.95;;;2.30;;
6614;SDS011;3343;42.896;23.912;2022-08-25T09:50:50;4.75;;;2.20;;
6614;SDS011;3343;42.896;23.912;2022-08-25T09:53:19;8.63;;;2.50;;
6614;SDS011;3343;42.896;23.912;2022-08-25T09:55:53;9.48;;;2.35;;
6614;SDS011;3343;42.896;23.912;2022-08-25T09:58:25;5.18;;;2.33;;
6614;SDS011;3343;42.896;23.912;2022-08-25T10:01:03;6.65;;;2.70;;
6614;SDS011;3343;42.896;23.912;2022-08-25T10:03:37;6.80;;;2.47;;
6614;SDS011;3343;42.896;23.912;2022-08-25T10:06:18;7.13;;;2.50;;
6614;SDS011;3343;42.896;23.912;2022-08-25T10:08:50;4.47;;;2.38;;
6614;SDS011;3343;42.896;23.912;2022-08-25T10:11:29;4.07;;;2.38;;
6614;SDS011;3343;42.896;23.912;2022-08-25T10:14:05;4.45;;;2.58;;
6614;SDS011;3343;42.896;23.912;2022-08-25T10:16:42;4.70;;;2.63;;
6614;SDS011;3343;42.896;23.912;2022-08-25T10:19:12;5.85;;;2.47;;
6614;SDS011;3343;42.896;23.912;2022-08-25T10:22:01;8.07;;;2.55;;
6614;SDS011;3343;42.896;23.912;2022-08-25T10:24:31;6.78;;;2.33;;
6614;SDS011;3343;42.896;23.912;2022-08-25T10:27:00;4.47;;;2.15;;
6614;SDS011;3343;42.896;23.912;2022-08-25T10:29:49;5.22;;;2.33;;
6614;SDS011;3343;42.896;23.912;2022-08-25T10:32:36;4.38;;;2.58;;
6614;SDS011;3343;42.896;23.912;2022-08-25T10:35:22;8.43;;;2.40;;
6614;SDS011;3343;42.896;23.912;2022-08-25T10:38:03;6.22;;;2.65;;
6614;SDS011;3343;42.896;23.912;2022-08-25T10:40:39;6.75;;;2.33;;
6614;SDS011;3343;42.896;23.912;2022-08-25T10:43:17;6.07;;;2.65;;
6614;SDS011;3343;42.896;23.912;2022-08-25T10:45:55;2.45;;;2.03;;
6614;SDS011;3343;42.896;23.912;2022-08-25T10:54:19;7.85;;;2.40;;
6614;SDS011;3343;42.896;23.912;2022-08-25T10:56:56;3.17;;;2.33;;
6614;SDS011;3343;42.896;23.912;2022-08-25T10:59:41;4.20;;;2.72;;
6614;SDS011;3343;42.896;23.912;2022-08-25T11:05:37;3.40;;;2.00;;
6614;SDS011;3343;42.896;23.912;2022-08-25T11:08:09;3.97;;;2.15;;
6614;SDS011;3343;42.896;23.912;2022-08-25T11:10:41;5.93;;;2.17;;
6614;SDS011;3343;42.896;23.912;2022-08-25T11:13:14;2.70;;;1.90;;
6614;SDS011;3343;42.896;23.912;2022-08-25T11:15:51;10.70;;;2.50;;
6614;SDS011;3343;42.896;23.912;2022-08-25T11:18:21;8.98;;;2.10;;
6614;SDS011;3343;42.896;23.912;2022-08-25T11:20:54;4.68;;;2.08;;
6614;SDS011;3343;42.896;23.912;2022-08-25T11:23:27;5.45;;;2.60;;
6614;SDS011;3343;42.896;23.912;2022-08-25T11:25:59;4.75;;;2.42;;
6614;SDS011;3343;42.896;23.912;2022-08-25T11:28:33;9.25;;;2.60;;
6614;SDS011;3343;42.896;23.912;2022-08-25T11:31:06;5.10;;;2.35;;
6614;SDS011;3343;42.896;23.912;2022-08-25T11:33:35;2.95;;;2.22;;
6614;SDS011;3343;42.896;23.912;2022-08-25T11:36:04;2.78;;;2.10;;
6614;SDS011;3343;42.896;23.912;2022-08-25T11:38:44;5.85;;;2.53;;
6614;SDS011;3343;42.896;23.912;2022-08-25T11:41:26;5.45;;;2.95;;
6614;SDS011;3343;42.896;23.912;2022-08-25T11:44:07;7.30;;;2.42;;
6614;SDS011;3343;42.896;23.912;2022-08-25T11:46:52;5.03;;;2.40;;
6614;SDS011;3343;42.896;23.912;2022-08-25T11:49:43;6.90;;;3.00;;
6614;SDS011;3343;42.896;23.912;2022-08-25T11:55:10;4.78;;;2.22;;
6614;SDS011;3343;42.896;23.912;2022-08-25T11:57:39;5.45;;;2.30;;
6614;SDS011;3343;42.896;23.912;2022-08-25T12:00:10;3.60;;;2.38;;
6614;SDS011;3343;42.896;23.912;2022-08-25T12:02:59;7.65;;;2.78;;
6614;SDS011;3343;42.896;23.912;2022-08-25T12:06:15;3.60;;;2.28;;
6614;SDS011;3343;42.896;23.912;2022-08-25T12:11:48;3.17;;;2.08;;
6614;SDS011;3343;42.896;23.912;2022-08-25T12:17:19;2.63;;;2.10;;
6614;SDS011;3343;42.896;23.912;2022-08-25T12:19:53;2.95;;;2.45;;
6614;SDS011;3343;42.896;23.912;2022-08-25T12:25:31;3.58;;;2.58;;
6614;SDS011;3343;42.896;23.912;2022-08-25T12:28:23;7.88;;;2.80;;
6614;SDS011;3343;42.896;23.912;2022-08-25T12:31:00;3.65;;;2.50;;
6614;SDS011;3343;42.896;23.912;2022-08-25T12:33:34;2.75;;;1.83;;
6614;SDS011;3343;42.896;23.912;2022-08-25T12:36:23;4.72;;;2.13;;
6614;SDS011;3343;42.896;23.912;2022-08-25T12:38:53;3.17;;;2.13;;
6614;SDS011;3343;42.896;23.912;2022-08-25T12:41:20;3.50;;;2.75;;
6614;SDS011;3343;42.896;23.912;2022-08-25T12:43:50;2.80;;;2.30;;
6614;SDS011;3343;42.896;23.912;2022-08-25T12:46:32;3.00;;;2.50;;
6614;SDS011;3343;42.896;23.912;2022-08-25T12:49:09;4.07;;;2.55;;
6614;SDS011;3343;42.896;23.912;2022-08-25T12:51:51;3.65;;;2.38;;
6614;SDS011;3343;42.896;23.912;2022-08-25T12:54:21;5.15;;;2.53;;
6614;SDS011;3343;42.896;23.912;2022-08-25T12:56:54;2.83;;;2.40;;
6614;SDS011;3343;42.896;23.912;2022-08-25T12:59:31;4.18;;;2.25;;
6614;SDS011;3343;42.896;23.912;2022-08-25T13:02:07;5.03;;;2.45;;
6614;SDS011;3343;42.896;23.912;2022-08-25T13:07:57;2.20;;;1.85;;
6614;SDS011;3343;42.896;23.912;2022-08-25T13:10:41;6.40;;;2.25;;
6614;SDS011;3343;42.896;23.912;2022-08-25T13:13:14;4.18;;;2.17;;
6614;SDS011;3343;42.896;23.912;2022-08-25T13:15:56;5.57;;;2.40;;
6614;SDS011;3343;42.896;23.912;2022-08-25T13:18:25;3.75;;;2.40;;
6614;SDS011;3343;42.896;23.912;2022-08-25T13:20:59;6.72;;;2.42;;
6614;SDS011;3343;42.896;23.912;2022-08-25T13:23:30;7.05;;;2.08;;
6614;SDS011;3343;42.896;23.912;2022-08-25T13:26:01;2.85;;;2.00;;
6614;SDS011;3343;42.896;23.912;2022-08-25T13:28:31;4.55;;;2.38;;
6614;SDS011;3343;42.896;23.912;2022-08-25T13:31:03;3.28;;;2.22;;
6614;SDS011;3343;42.896;23.912;2022-08-25T13:33:36;5.80;;;2.17;;
6614;SDS011;3343;42.896;23.912;2022-08-25T13:36:03;5.18;;;1.98;;
6614;SDS011;3343;42.896;23.912;2022-08-25T13:38:49;3.90;;;2.03;;
6614;SDS011;3343;42.896;23.912;2022-08-25T13:41:17;6.38;;;2.55;;
6614;SDS011;3343;42.896;23.912;2022-08-25T13:43:50;5.68;;;2.17;;
6614;SDS011;3343;42.896;23.912;2022-08-25T13:46:19;2.80;;;2.13;;
6614;SDS011;3343;42.896;23.912;2022-08-25T13:48:46;3.22;;;2.08;;
6614;SDS011;3343;42.896;23.912;2022-08-25T13:51:17;3.88;;;2.40;;
6614;SDS011;3343;42.896;23.912;2022-08-25T13:53:51;2.88;;;2.08;;
6614;SDS011;3343;42.896;23.912;2022-08-25T13:56:25;5.30;;;2.00;;
6614;SDS011;3343;42.896;23.912;2022-08-25T13:58:55;3.22;;;2.08;;
6614;SDS011;3343;42.896;23.912;2022-08-25T14:01:24;5.45;;;2.00;;
6614;SDS011;3343;42.896;23.912;2022-08-25T14:03:54;3.90;;;2.28;;
6614;SDS011;3343;42.896;23.912;2022-08-25T14:06:24;3.25;;;1.85;;
6614;SDS011;3343;42.896;23.912;2022-08-25T14:09:10;4.70;;;2.10;;
6614;SDS011;3343;42.896;23.912;2022-08-25T14:11:41;5.68;;;2.15;;
6614;SDS011;3343;42.896;23.912;2022-08-25T14:14:11;3.47;;;2.05;;
6614;SDS011;3343;42.896;23.912;2022-08-25T14:16:44;2.80;;;1.88;;
6614;SDS011;3343;42.896;23.912;2022-08-25T14:19:14;4.20;;;2.20;;
6614;SDS011;3343;42.896;23.912;2022-08-25T14:21:43;4.63;;;2.30;;
6614;SDS011;3343;42.896;23.912;2022-08-25T14:24:13;8.43;;;2.17;;
6614;SDS011;3343;42.896;23.912;2022-08-25T14:26:41;2.38;;;1.95;;
6614;SDS011;3343;42.896;23.912;2022-08-25T14:29:09;6.25;;;2.33;;
6614;SDS011;3343;42.896;23.912;2022-08-25T14:31:36;3.95;;;2.35;;
6614;SDS011;3343;42.896;23.912;2022-08-25T14:34:08;7.25;;;1.85;;
6614;SDS011;3343;42.896;23.912;2022-08-25T14:36:38;5.57;;;2.03;;
6614;SDS011;3343;42.896;23.912;2022-08-25T14:39:06;5.00;;;2.15;;
6614;SDS011;3343;42.896;23.912;2022-08-25T14:41:36;3.83;;;2.00;;
6614;SDS011;3343;42.896;23.912;2022-08-25T14:44:05;6.00;;;2.00;;
6614;SDS011;3343;42.896;23.912;2022-08-25T14:46:33;3.55;;;1.90;;
6614;SDS011;3343;42.896;23.912;2022-08-25T14:49:05;3.70;;;1.98;;
6614;SDS011;3343;42.896;23.912;2022-08-25T14:51:35;2.83;;;2.05;;
6614;SDS011;3343;42.896;23.912;2022-08-25T14:54:06;4.38;;;2.17;;
6614;SDS011;3343;42.896;23.912;2022-08-25T14:56:38;2.53;;;2.00;;
6614;SDS011;3343;42.896;23.912;2022-08-25T14:59:05;5.65;;;2.10;;
6614;SDS011;3343;42.896;23.912;2022-08-25T15:01:32;7.07;;;2.35;;
6614;SDS011;3343;42.896;23.912;2022-08-25T15:04:01;3.15;;;1.73;;
6614;SDS011;3343;42.896;23.912;2022-08-25T15:06:30;3.22;;;1.73;;
6614;SDS011;3343;42.896;23.912;2022-08-25T15:08:59;3.78;;;1.95;;
6614;SDS011;3343;42.896;23.912;2022-08-25T15:11:40;4.65;;;2.28;;
6614;SDS011;3343;42.896;23.912;2022-08-25T15:14:09;5.95;;;2.00;;
6614;SDS011;3343;42.896;23.912;2022-08-25T15:16:37;4.07;;;2.22;;
6614;SDS011;3343;42.896;23.912;2022-08-25T15:19:08;3.35;;;2.20;;
6614;SDS011;3343;42.896;23.912;2022-08-25T15:21:39;3.25;;;1.83;;
6614;SDS011;3343;42.896;23.912;2022-08-25T15:24:07;3.45;;;2.00;;
6614;SDS011;3343;42.896;23.912;2022-08-25T15:26:37;2.33;;;1.92;;
6614;SDS011;3343;42.896;23.912;2022-08-25T15:29:08;2.50;;;1.80;;
6614;SDS011;3343;42.896;23.912;2022-08-25T15:31:35;4.53;;;1.80;;
6614;SDS011;3343;42.896;23.912;2022-08-25T15:34:04;3.47;;;1.90;;
6614;SDS011;3343;42.896;23.912;2022-08-25T15:36:31;5.50;;;2.28;;
6614;SDS011;3343;42.896;23.912;2022-08-25T15:38:59;4.85;;;2.10;;
6614;SDS011;3343;42.896;23.912;2022-08-25T15:41:25;4.28;;;2.20;;
6614;SDS011;3343;42.896;23.912;2022-08-25T15:43:55;3.97;;;2.15;;
6614;SDS011;3343;42.896;23.912;2022-08-25T15:46:22;3.47;;;2.00;;
6614;SDS011;3343;42.896;23.912;2022-08-25T15:48:53;2.63;;;2.03;;
6614;SDS011;3343;42.896;23.912;2022-08-25T15:51:21;6.13;;;2.20;;
6614;SDS011;3343;42.896;23.912;2022-08-25T15:53:48;6.30;;;2.08;;
6614;SDS011;3343;42.896;23.912;2022-08-25T15:56:15;6.72;;;2.40;;
6614;SDS011;3343;42.896;23.912;2022-08-25T15:58:43;8.23;;;2.60;;
6614;SDS011;3343;42.896;23.912;2022-08-25T16:01:14;5.88;;;1.95;;
6614;SDS011;3343;42.896;23.912;2022-08-25T16:03:43;26.25;;;13.30;;
6614;SDS011;3343;42.896;23.912;2022-08-25T16:06:10;5.60;;;2.42;;
6614;SDS011;3343;42.896;23.912;2022-08-25T16:08:37;3.05;;;2.50;;
6614;SDS011;3343;42.896;23.912;2022-08-25T16:11:04;2.20;;;1.92;;
6614;SDS011;3343;42.896;23.912;2022-08-25T16:13:32;6.25;;;2.30;;
6614;SDS011;3343;42.896;23.912;2022-08-25T16:15:59;6.75;;;2.58;;
6614;SDS011;3343;42.896;23.912;2022-08-25T16:18:27;8.00;;;2.72;;
6614;SDS011;3343;42.896;23.912;2022-08-25T16:20:54;3.22;;;2.25;;
6614;SDS011;3343;42.896;23.912;2022-08-25T16:23:21;5.32;;;2.30;;
6614;SDS011;3343;42.896;23.912;2022-08-25T16:25:48;3.85;;;3.10;;
6614;SDS011;3343;42.896;23.912;2022-08-25T16:28:15;5.38;;;2.30;;
6614;SDS011;3343;42.896;23.912;2022-08-25T16:30:46;6.60;;;2.25;;
6614;SDS011;3343;42.896;23.912;2022-08-25T16:33:14;6.47;;;2.13;;
6614;SDS011;3343;42.896;23.912;2022-08-25T16:35:43;7.05;;;3.72;;
6614;SDS011;3343;42.896;23.912;2022-08-25T16:38:10;13.52;;;4.78;;
6614;SDS011;3343;42.896;23.912;2022-08-25T16:40:38;5.32;;;2.08;;
6614;SDS011;3343;42.896;23.912;2022-08-25T16:43:06;4.00;;;2.05;;
6614;SDS011;3343;42.896;23.912;2022-08-25T16:45:34;2.38;;;1.98;;
6614;SDS011;3343;42.896;23.912;2022-08-25T16:48:01;3.10;;;1.77;;
6614;SDS011;3343;42.896;23.912;2022-08-25T16:50:29;6.38;;;3.03;;
6614;SDS011;3343;42.896;23.912;2022-08-25T16:52:58;15.43;;;9.23;;
6614;SDS011;3343;42.896;23.912;2022-08-25T16:55:42;2.92;;;2.28;;
6614;SDS011;3343;42.896;23.912;2022-08-25T16:58:09;3.03;;;2.00;;